sensor_id;sensor_type;location;lat;lon;timestamp;pressure;altitude;pressure_sealevel;temperature;humidity
10668;BME280;5382;42.136;24.796;2023-01-25T00:00:05;101415.75;;;2.58;100.00
10668;BME280;5382;42.136;24.796;2023-01-25T00:02:32;101402.66;;;2.61;100.00
10668;BME280;5382;42.136;24.796;2023-01-25T00:04:58;101428.69;;;2.67;100.00
10668;BME280;5382;42.136;24.796;2023-01-25T00:07:25;101428.69;;;2.69;100.00
10668;BME280;5382;42.136;24.796;2023-01-25T00:09:52;101433.06;;;2.65;100.00
10668;BME280;5382;42.136;24.796;2023-01-25T00:12:19;101426.25;;;2.56;100.00
10668;BME280;5382;42.136;24.796;2023-01-25T00:14:46;101428.78;;;2.61;100.00
10668;BME280;5382;42.136;24.796;2023-01-25T00:17:14;101433.06;;;2.65;100.00
10668;BME280;5382;42.136;24.796;2023-01-25T00:19:40;101428.78;;;2.61;100.00
10668;BME280;5382;42.136;24.796;2023-01-25T00:22:07;101424.44;;;2.60;100.00
10668;BME280;5382;42.136;24.796;2023-01-25T00:24:34;101433.00;;;2.70;100.00
10668;BME280;5382;42.136;24.796;2023-01-25T00:27:01;101440.84;;;2.71;100.00
10668;BME280;5382;42.136;24.796;2023-01-25T00:29:28;101402.72;;;2.56;100.00
10668;BME280;5382;42.136;24.796;2023-01-25T00:32:02;101425.97;;;2.75;100.00
10668;BME280;5382;42.136;24.796;2023-01-25T00:34:45;101438.19;;;2.74;100.00
10668;BME280;5382;42.136;24.796;2023-01-25T00:37:22;101427.84;;;2.65;100.00
10668;BME280;5382;42.136;24.796;2023-01-25T00:39:50;101430.41;;;2.70;100.00
10668;BME280;5382;42.136;24.796;2023-01-25T00:42:18;101433.94;;;2.66;100.00
10668;BME280;5382;42.136;24.796;2023-01-25T00:44:45;101384.06;;;2.22;100.00
10668;BME280;5382;42.136;24.796;2023-01-25T00:47:13;101435.94;;;2.47;100.00
10668;BME280;5382;42.136;24.796;2023-01-25T00:49:41;101413.44;;;2.38;100.00
10668;BME280;5382;42.136;24.796;2023-01-25T00:52:10;101428.16;;;2.44;100.00
10668;BME280;5382;42.136;24.796;2023-01-25T00:54:37;101403.16;;;2.27;100.00
10668;BME280;5382;42.136;24.796;2023-01-25T00:57:04;101443.69;;;2.54;100.00
10668;BME280;5382;42.136;24.796;2023-01-25T00:59:31;101415.94;;;2.46;100.00
10668;BME280;5382;42.136;24.796;2023-01-25T01:01:58;101435.94;;;2.47;100.00
10668;BME280;5382;42.136;24.796;2023-01-25T01:04:25;101441.06;;;2.56;100.00
10668;BME280;5382;42.136;24.796;2023-01-25T01:06:53;101417.72;;;2.42;100.00
10668;BME280;5382;42.136;24.796;2023-01-25T01:09:22;101425.50;;;2.47;100.00
10668;BME280;5382;42.136;24.796;2023-01-25T01:11:49;101429.88;;;2.46;100.00
10668;BME280;5382;42.136;24.796;2023-01-25T01:14:16;101430.81;;;2.39;100.00
10668;BME280;5382;42.136;24.796;2023-01-25T01:16:43;101422.94;;;2.44;100.00
10668;BME280;5382;42.136;24.796;2023-01-25T01:19:10;101406.56;;;2.32;100.00
10668;BME280;5382;42.136;24.796;2023-01-25T01:21:37;101414.25;;;2.43;100.00
10668;BME280;5382;42.136;24.796;2023-01-25T01:24:05;101421.38;;;2.30;100.00
10668;BME280;5382;42.136;24.796;2023-01-25T01:26:33;101388.44;;;2.18;100.00
10668;BME280;5382;42.136;24.796;2023-01-25T01:29:00;101346.97;;;1.97;100.00
10668;BME280;5382;42.136;24.796;2023-01-25T01:31:27;101409.91;;;2.40;100.00
10668;BME280;5382;42.136;24.796;2023-01-25T01:33:55;101405.75;;;2.27;100.00
10668;BME280;5382;42.136;24.796;2023-01-25T01:36:24;101407.47;;;2.28;100.00
10668;BME280;5382;42.136;24.796;2023-01-25T01:38:51;101404.75;;;2.34;100.00
10668;BME280;5382;42.136;24.796;2023-01-25T01:41:19;101401.28;;;2.35;100.00
10668;BME280;5382;42.136;24.796;2023-01-25T01:43:47;101410.78;;;2.41;100.00
10668;BME280;5382;42.136;24.796;2023-01-25T01:46:21;101416.16;;;2.30;100.00
10668;BME280;5382;42.136;24.796;2023-01-25T01:48:53;101389.13;;;2.31;100.00
10668;BME280;5382;42.136;24.796;2023-01-25T01:51:25;101404.66;;;2.42;100.00
10668;BME280;5382;42.136;24.796;2023-01-25T01:53:59;101257.28;;;1.35;100.00
10668;BME280;5382;42.136;24.796;2023-01-25T01:56:31;101362.41;;;2.12;100.00
10668;BME280;5382;42.136;24.796;2023-01-25T01:59:03;101402.09;;;2.37;100.00
10668;BME280;5382;42.136;24.796;2023-01-25T02:01:31;101389.09;;;2.34;100.00
10668;BME280;5382;42.136;24.796;2023-01-25T02:03:58;101394.25;;;2.37;100.00
10668;BME280;5382;42.136;24.796;2023-01-25T02:06:28;101404.72;;;2.37;100.00
10668;BME280;5382;42.136;24.796;2023-01-25T02:08:59;101347.72;;;2.07;100.00
10668;BME280;5382;42.136;24.796;2023-01-25T02:11:27;101356.41;;;2.06;100.00
10668;BME280;5382;42.136;24.796;2023-01-25T02:13:54;101352.13;;;1.99;100.00
10668;BME280;5382;42.136;24.796;2023-01-25T02:16:27;101377.09;;;2.23;100.00
10668;BME280;5382;42.136;24.796;2023-01-25T02:18:56;101404.66;;;2.44;100.00
10668;BME280;5382;42.136;24.796;2023-01-25T02:21:32;101404.59;;;2.47;100.00
10668;BME280;5382;42.136;24.796;2023-01-25T02:24:05;101356.13;;;2.27;100.00
10668;BME280;5382;42.136;24.796;2023-01-25T02:26:34;101319.00;;;2.04;100.00
10668;BME280;5382;42.136;24.796;2023-01-25T02:29:03;101401.03;;;2.52;100.00
10668;BME280;5382;42.136;24.796;2023-01-25T02:31:30;101394.03;;;2.54;100.00
10668;BME280;5382;42.136;24.796;2023-01-25T02:33:57;101392.22;;;2.58;100.00
10668;BME280;5382;42.136;24.796;2023-01-25T02:36:26;101353.63;;;2.20;100.00
10668;BME280;5382;42.136;24.796;2023-01-25T02:38:56;101400.06;;;2.61;100.00
10668;BME280;5382;42.136;24.796;2023-01-25T02:41:29;101396.53;;;2.62;100.00
10668;BME280;5382;42.136;24.796;2023-01-25T02:43:59;101364.66;;;2.37;100.00
10668;BME280;5382;42.136;24.796;2023-01-25T02:46:27;101399.97;;;2.66;100.00
10668;BME280;5382;42.136;24.796;2023-01-25T02:48:56;101395.56;;;2.69;100.00
10668;BME280;5382;42.136;24.796;2023-01-25T02:51:26;101399.94;;;2.67;100.00
10668;BME280;5382;42.136;24.796;2023-01-25T02:53:53;101385.22;;;2.61;100.00
10668;BME280;5382;42.136;24.796;2023-01-25T02:56:20;101358.38;;;2.52;100.00
10668;BME280;5382;42.136;24.796;2023-01-25T02:58:47;101393.06;;;2.61;100.00
10668;BME280;5382;42.136;24.796;2023-01-25T03:01:16;101379.16;;;2.58;100.00
10668;BME280;5382;42.136;24.796;2023-01-25T03:03:43;101369.78;;;2.45;100.00
10668;BME280;5382;42.136;24.796;2023-01-25T03:06:10;101398.34;;;2.57;100.00
10668;BME280;5382;42.136;24.796;2023-01-25T03:08:36;101394.22;;;2.42;100.00
10668;BME280;5382;42.136;24.796;2023-01-25T03:11:04;101352.78;;;2.17;100.00
10668;BME280;5382;42.136;24.796;2023-01-25T03:13:33;101404.50;;;2.53;100.00
10668;BME280;5382;42.136;24.796;2023-01-25T03:16:02;101404.53;;;2.51;100.00
10668;BME280;5382;42.136;24.796;2023-01-25T03:18:31;101403.47;;;2.63;100.00
10668;BME280;5382;42.136;24.796;2023-01-25T03:21:03;101399.16;;;2.62;100.00
10668;BME280;5382;42.136;24.796;2023-01-25T03:23:30;101375.75;;;2.53;100.00
10668;BME280;5382;42.136;24.796;2023-01-25T03:26:04;101394.81;;;2.61;100.00
10668;BME280;5382;42.136;24.796;2023-01-25T03:28:31;101393.13;;;2.58;100.00
10668;BME280;5382;42.136;24.796;2023-01-25T03:30:57;101394.84;;;2.58;100.00
10668;BME280;5382;42.136;24.796;2023-01-25T03:33:25;101390.63;;;2.48;100.00
10668;BME280;5382;42.136;24.796;2023-01-25T03:35:53;101357.84;;;2.28;100.00
10668;BME280;5382;42.136;24.796;2023-01-25T03:38:20;101343.94;;;2.26;100.00
10668;BME280;5382;42.136;24.796;2023-01-25T03:40:47;101359.34;;;2.45;100.00
10668;BME280;5382;42.136;24.796;2023-01-25T03:43:14;101411.41;;;2.57;100.00
10668;BME280;5382;42.136;24.796;2023-01-25T03:45:41;101392.28;;;2.56;100.00
10668;BME280;5382;42.136;24.796;2023-01-25T03:48:08;101332.84;;;2.09;100.00
10668;BME280;5382;42.136;24.796;2023-01-25T03:50:35;101382.94;;;2.38;100.00
10668;BME280;5382;42.136;24.796;2023-01-25T03:53:07;101369.06;;;2.35;100.00
10668;BME280;5382;42.136;24.796;2023-01-25T03:55:52;101394.16;;;2.45;100.00
10668;BME280;5382;42.136;24.796;2023-01-25T03:58:19;101381.19;;;2.37;100.00
10668;BME280;5382;42.136;24.796;2023-01-25T04:00:46;101370.06;;;2.26;100.00
10668;BME280;5382;42.136;24.796;2023-01-25T04:03:13;101391.53;;;2.45;100.00
10668;BME280;5382;42.136;24.796;2023-01-25T04:05:40;101404.59;;;2.47;100.00
10668;BME280;5382;42.136;24.796;2023-01-25T04:08:09;101384.81;;;2.29;100.00
10668;BME280;5382;42.136;24.796;2023-01-25T04:10:36;101408.00;;;2.52;100.00
10668;BME280;5382;42.136;24.796;2023-01-25T04:13:02;101396.88;;;2.37;100.00
10668;BME280;5382;42.136;24.796;2023-01-25T04:15:29;101377.22;;;2.12;100.00
10668;BME280;5382;42.136;24.796;2023-01-25T04:17:56;101407.25;;;2.44;100.00
10668;BME280;5382;42.136;24.796;2023-01-25T04:20:23;101402.09;;;2.40;100.00
10668;BME280;5382;42.136;24.796;2023-01-25T04:22:50;101402.94;;;2.41;100.00
10668;BME280;5382;42.136;24.796;2023-01-25T04:25:18;101403.81;;;2.40;100.00
10668;BME280;5382;42.136;24.796;2023-01-25T04:27:45;101401.13;;;2.45;100.00
10668;BME280;5382;42.136;24.796;2023-01-25T04:30:12;101405.72;;;2.29;100.00
10668;BME280;5382;42.136;24.796;2023-01-25T04:32:39;101397.91;;;2.27;100.00
10668;BME280;5382;42.136;24.796;2023-01-25T04:35:07;101403.16;;;2.27;100.00
10668;BME280;5382;42.136;24.796;2023-01-25T04:37:34;101386.94;;;2.01;100.00
10668;BME280;5382;42.136;24.796;2023-01-25T04:40:00;101411.84;;;2.26;100.00
10668;BME280;5382;42.136;24.796;2023-01-25T04:42:29;101418.03;;;2.19;100.00
10668;BME280;5382;42.136;24.796;2023-01-25T04:44:56;101360.19;;;1.82;100.00
10668;BME280;5382;42.136;24.796;2023-01-25T04:47:23;101419.78;;;2.20;100.00
10668;BME280;5382;42.136;24.796;2023-01-25T04:49:50;101417.16;;;2.20;100.00
10668;BME280;5382;42.136;24.796;2023-01-25T04:52:17;101367.84;;;1.95;100.00
10668;BME280;5382;42.136;24.796;2023-01-25T04:54:44;101394.56;;;2.16;100.00
10668;BME280;5382;42.136;24.796;2023-01-25T04:57:10;101418.72;;;2.32;100.00
10668;BME280;5382;42.136;24.796;2023-01-25T04:59:39;101412.75;;;2.25;100.00
10668;BME280;5382;42.136;24.796;2023-01-25T05:02:06;101405.97;;;2.10;100.00
10668;BME280;5382;42.136;24.796;2023-01-25T05:04:33;101362.72;;;1.88;100.00
10668;BME280;5382;42.136;24.796;2023-01-25T05:06:59;101413.78;;;2.10;100.00
10668;BME280;5382;42.136;24.796;2023-01-25T05:09:27;101408.56;;;2.12;100.00
10668;BME280;5382;42.136;24.796;2023-01-25T05:11:54;101399.13;;;2.02;100.00
10668;BME280;5382;42.136;24.796;2023-01-25T05:14:20;101418.13;;;2.11;100.00
10668;BME280;5382;42.136;24.796;2023-01-25T05:16:48;101420.81;;;2.07;100.00
10668;BME280;5382;42.136;24.796;2023-01-25T05:19:15;101434.69;;;2.10;100.00
10668;BME280;5382;42.136;24.796;2023-01-25T05:21:42;101434.69;;;2.09;100.00
10668;BME280;5382;42.136;24.796;2023-01-25T05:24:24;101435.59;;;2.06;100.00
10668;BME280;5382;42.136;24.796;2023-01-25T05:26:51;101420.81;;;2.04;100.00
10668;BME280;5382;42.136;24.796;2023-01-25T05:29:28;101420.78;;;2.10;100.00
10668;BME280;5382;42.136;24.796;2023-01-25T05:31:56;101411.28;;;2.04;100.00
10668;BME280;5382;42.136;24.796;2023-01-25T05:34:23;101441.66;;;2.10;100.00
10668;BME280;5382;42.136;24.796;2023-01-25T05:36:51;101403.44;;;2.01;100.00
10668;BME280;5382;42.136;24.796;2023-01-25T05:39:18;101436.31;;;2.19;100.00
10668;BME280;5382;42.136;24.796;2023-01-25T05:41:45;101430.22;;;2.18;100.00
10668;BME280;5382;42.136;24.796;2023-01-25T05:44:12;101353.28;;;1.79;100.00
10668;BME280;5382;42.136;24.796;2023-01-25T05:46:39;101426.22;;;1.90;100.00
10668;BME280;5382;42.136;24.796;2023-01-25T05:49:07;101434.53;;;2.21;100.00
10668;BME280;5382;42.136;24.796;2023-01-25T05:51:34;101448.34;;;2.29;100.00
10668;BME280;5382;42.136;24.796;2023-01-25T05:54:02;101415.50;;;2.13;100.00
10668;BME280;5382;42.136;24.796;2023-01-25T05:56:29;101443.88;;;2.39;100.00
10668;BME280;5382;42.136;24.796;2023-01-25T05:58:57;101444.75;;;2.39;100.00
10668;BME280;5382;42.136;24.796;2023-01-25T06:01:25;101432.63;;;2.35;100.00
10668;BME280;5382;42.136;24.796;2023-01-25T06:03:52;101441.34;;;2.34;100.00
10668;BME280;5382;42.136;24.796;2023-01-25T06:06:20;101383.69;;;1.80;100.00
10668;BME280;5382;42.136;24.796;2023-01-25T06:08:47;101437.91;;;2.29;100.00
10668;BME280;5382;42.136;24.796;2023-01-25T06:11:16;101449.94;;;2.43;100.00
10668;BME280;5382;42.136;24.796;2023-01-25T06:13:43;101423.84;;;2.39;100.00
10668;BME280;5382;42.136;24.796;2023-01-25T06:16:10;101445.59;;;2.42;100.00
10668;BME280;5382;42.136;24.796;2023-01-25T06:18:37;101452.69;;;2.33;100.00
10668;BME280;5382;42.136;24.796;2023-01-25T06:21:05;101408.72;;;2.00;100.00
10668;BME280;5382;42.136;24.796;2023-01-25T06:23:33;101439.72;;;2.26;100.00
10668;BME280;5382;42.136;24.796;2023-01-25T06:26:01;101444.03;;;2.28;100.00
10668;BME280;5382;42.136;24.796;2023-01-25T06:28:29;101443.13;;;2.29;100.00
10668;BME280;5382;42.136;24.796;2023-01-25T06:31:02;101443.03;;;2.38;100.00
10668;BME280;5382;42.136;24.796;2023-01-25T06:33:29;101442.13;;;2.41;100.00
10668;BME280;5382;42.136;24.796;2023-01-25T06:35:59;101433.50;;;2.36;100.00
10668;BME280;5382;42.136;24.796;2023-01-25T06:38:26;101442.94;;;2.45;100.00
10668;BME280;5382;42.136;24.796;2023-01-25T06:40:57;101435.16;;;2.42;100.00
10668;BME280;5382;42.136;24.796;2023-01-25T06:43:24;101447.19;;;2.53;100.00
10668;BME280;5382;42.136;24.796;2023-01-25T06:45:51;101417.75;;;2.39;100.00
10668;BME280;5382;42.136;24.796;2023-01-25T06:48:18;101451.53;;;2.53;100.00
10668;BME280;5382;42.136;24.796;2023-01-25T06:50:45;101389.94;;;2.38;100.00
10668;BME280;5382;42.136;24.796;2023-01-25T06:53:11;101424.53;;;2.52;100.00
10668;BME280;5382;42.136;24.796;2023-01-25T06:55:38;101445.22;;;2.69;100.00
10668;BME280;5382;42.136;24.796;2023-01-25T06:58:06;101446.13;;;2.65;100.00
10668;BME280;5382;42.136;24.796;2023-01-25T07:00:33;101440.13;;;2.60;100.00
10668;BME280;5382;42.136;24.796;2023-01-25T07:03:00;101426.50;;;2.36;100.00
10668;BME280;5382;42.136;24.796;2023-01-25T07:05:26;101442.72;;;2.60;100.00
10668;BME280;5382;42.136;24.796;2023-01-25T07:07:53;101448.81;;;2.60;100.00
10668;BME280;5382;42.136;24.796;2023-01-25T07:10:20;101444.47;;;2.61;100.00
10668;BME280;5382;42.136;24.796;2023-01-25T07:12:47;101446.03;;;2.74;100.00
10668;BME280;5382;42.136;24.796;2023-01-25T07:15:15;101447.91;;;2.63;100.00
10668;BME280;5382;42.136;24.796;2023-01-25T07:17:42;101423.78;;;2.44;100.00
10668;BME280;5382;42.136;24.796;2023-01-25T07:20:10;101424.75;;;2.38;100.00
10668;BME280;5382;42.136;24.796;2023-01-25T07:22:36;101443.56;;;2.64;100.00
10668;BME280;5382;42.136;24.796;2023-01-25T07:25:04;101453.00;;;2.74;100.00
10668;BME280;5382;42.136;24.796;2023-01-25T07:27:32;101453.97;;;2.67;100.00
10668;BME280;5382;42.136;24.796;2023-01-25T07:29:59;101462.72;;;2.62;100.00
10668;BME280;5382;42.136;24.796;2023-01-25T07:32:28;101453.97;;;2.67;100.00
10668;BME280;5382;42.136;24.796;2023-01-25T07:34:55;101405.66;;;2.33;100.00
10668;BME280;5382;42.136;24.796;2023-01-25T07:37:22;101434.16;;;2.50;100.00
10668;BME280;5382;42.136;24.796;2023-01-25T07:39:52;101384.97;;;2.18;100.00
10668;BME280;5382;42.136;24.796;2023-01-25T07:42:22;101458.22;;;2.74;100.00
10668;BME280;5382;42.136;24.796;2023-01-25T07:44:49;101465.94;;;2.83;100.00
10668;BME280;5382;42.136;24.796;2023-01-25T07:47:16;101465.22;;;2.70;100.00
10668;BME280;5382;42.136;24.796;2023-01-25T07:49:45;101468.75;;;2.68;100.00
10668;BME280;5382;42.136;24.796;2023-01-25T07:52:11;101448.06;;;2.54;100.00
10668;BME280;5382;42.136;24.796;2023-01-25T07:54:38;101465.44;;;2.56;100.00
10668;BME280;5382;42.136;24.796;2023-01-25T07:57:05;101480.06;;;2.68;100.00
10668;BME280;5382;42.136;24.796;2023-01-25T07:59:32;101436.25;;;2.25;100.00
10668;BME280;5382;42.136;24.796;2023-01-25T08:01:58;101475.00;;;2.57;100.00
10668;BME280;5382;42.136;24.796;2023-01-25T08:04:25;101479.25;;;2.65;100.00
10668;BME280;5382;42.136;24.796;2023-01-25T08:06:53;101475.78;;;2.64;100.00
10668;BME280;5382;42.136;24.796;2023-01-25T08:09:21;101483.78;;;2.53;100.00
10668;BME280;5382;42.136;24.796;2023-01-25T08:11:48;101478.66;;;2.43;100.00
10668;BME280;5382;42.136;24.796;2023-01-25T08:14:15;101368.00;;;1.83;100.00
10668;BME280;5382;42.136;24.796;2023-01-25T08:16:42;101320.56;;;1.50;100.00
10668;BME280;5382;42.136;24.796;2023-01-25T08:19:09;101425.00;;;2.20;100.00
10668;BME280;5382;42.136;24.796;2023-01-25T08:21:36;101451.63;;;2.47;100.00
10668;BME280;5382;42.136;24.796;2023-01-25T08:24:06;101467.88;;;2.69;100.00
10668;BME280;5382;42.136;24.796;2023-01-25T08:26:34;101465.38;;;2.61;100.00
10668;BME280;5382;42.136;24.796;2023-01-25T08:29:02;101473.97;;;2.68;100.00
10668;BME280;5382;42.136;24.796;2023-01-25T08:31:30;101462.88;;;2.53;100.00
10668;BME280;5382;42.136;24.796;2023-01-25T08:33:58;101478.31;;;2.70;100.00
10668;BME280;5382;42.136;24.796;2023-01-25T08:36:26;101477.44;;;2.70;100.00
10668;BME280;5382;42.136;24.796;2023-01-25T08:38:55;101410.69;;;2.47;100.00
10668;BME280;5382;42.136;24.796;2023-01-25T08:41:24;101459.16;;;2.70;100.00
10668;BME280;5382;42.136;24.796;2023-01-25T08:43:52;101376.28;;;2.16;100.00
10668;BME280;5382;42.136;24.796;2023-01-25T08:46:21;101439.19;;;2.64;100.00
10668;BME280;5382;42.136;24.796;2023-01-25T08:48:52;101467.72;;;2.79;100.00
10668;BME280;5382;42.136;24.796;2023-01-25T08:51:20;101399.31;;;2.50;100.00
10668;BME280;5382;42.136;24.796;2023-01-25T08:53:47;101475.34;;;2.95;100.00
10668;BME280;5382;42.136;24.796;2023-01-25T08:56:15;101468.31;;;2.97;100.00
10668;BME280;5382;42.136;24.796;2023-01-25T08:58:46;101468.19;;;3.06;100.00
10668;BME280;5382;42.136;24.796;2023-01-25T09:01:14;101458.75;;;2.96;100.00
10668;BME280;5382;42.136;24.796;2023-01-25T09:03:43;101338.88;;;2.14;100.00
10668;BME280;5382;42.136;24.796;2023-01-25T09:06:11;101473.53;;;2.98;100.00
10668;BME280;5382;42.136;24.796;2023-01-25T09:08:38;101468.38;;;2.95;100.00
10668;BME280;5382;42.136;24.796;2023-01-25T09:11:07;101452.91;;;2.81;100.00
10668;BME280;5382;42.136;24.796;2023-01-25T09:13:34;101460.34;;;3.04;100.00
10668;BME280;5382;42.136;24.796;2023-01-25T09:16:04;101446.16;;;3.21;100.00
10668;BME280;5382;42.136;24.796;2023-01-25T09:18:32;101348.53;;;2.69;100.00
10668;BME280;5382;42.136;24.796;2023-01-25T09:21:05;101438.88;;;3.40;100.00
10668;BME280;5382;42.136;24.796;2023-01-25T09:23:32;101375.81;;;3.04;100.00
10668;BME280;5382;42.136;24.796;2023-01-25T09:25:59;101438.25;;;3.24;100.00
10668;BME280;5382;42.136;24.796;2023-01-25T09:28:28;101405.59;;;2.95;100.00
10668;BME280;5382;42.136;24.796;2023-01-25T09:30:56;101441.59;;;3.34;100.00
10668;BME280;5382;42.136;24.796;2023-01-25T09:33:26;101407.00;;;3.16;100.00
10668;BME280;5382;42.136;24.796;2023-01-25T09:35:53;101428.41;;;3.40;100.00
10668;BME280;5382;42.136;24.796;2023-01-25T09:38:20;101392.38;;;3.04;100.00
10668;BME280;5382;42.136;24.796;2023-01-25T09:41:01;101290.38;;;2.55;100.00
10668;BME280;5382;42.136;24.796;2023-01-25T09:43:40;101390.41;;;3.19;100.00
10668;BME280;5382;42.136;24.796;2023-01-25T09:46:24;101385.09;;;3.23;100.00
10668;BME280;5382;42.136;24.796;2023-01-25T09:49:00;101397.81;;;3.43;100.00
10668;BME280;5382;42.136;24.796;2023-01-25T09:51:44;101406.41;;;3.50;100.00
10668;BME280;5382;42.136;24.796;2023-01-25T09:54:15;101361.75;;;3.11;100.00
10668;BME280;5382;42.136;24.796;2023-01-25T09:56:47;101400.47;;;3.40;100.00
10668;BME280;5382;42.136;24.796;2023-01-25T09:59:18;101291.47;;;2.93;100.00
10668;BME280;5382;42.136;24.796;2023-01-25T10:01:50;101397.81;;;3.43;100.00
10668;BME280;5382;42.136;24.796;2023-01-25T10:04:23;101390.00;;;3.40;100.00
10668;BME280;5382;42.136;24.796;2023-01-25T10:06:53;101340.06;;;3.04;100.00
10668;BME280;5382;42.136;24.796;2023-01-25T10:09:30;101380.38;;;3.44;100.00
10668;BME280;5382;42.136;24.796;2023-01-25T10:12:04;101324.69;;;2.88;100.00
10668;BME280;5382;42.136;24.796;2023-01-25T10:14:31;101374.28;;;3.42;100.00
10668;BME280;5382;42.136;24.796;2023-01-25T10:17:05;101322.81;;;2.96;100.00
10668;BME280;5382;42.136;24.796;2023-01-25T10:19:52;101313.44;;;2.82;100.00
10668;BME280;5382;42.136;24.796;2023-01-25T10:22:27;101358.66;;;3.39;100.00
10668;BME280;5382;42.136;24.796;2023-01-25T10:28:01;101273.13;;;2.94;100.00
10668;BME280;5382;42.136;24.796;2023-01-25T10:30:36;101291.97;;;3.13;100.00
10668;BME280;5382;42.136;24.796;2023-01-25T10:33:10;101348.66;;;3.59;100.00
10668;BME280;5382;42.136;24.796;2023-01-25T10:35:43;101341.69;;;3.58;100.00
10668;BME280;5382;42.136;24.796;2023-01-25T10:38:15;101308.41;;;3.21;100.00
10668;BME280;5382;42.136;24.796;2023-01-25T10:40:48;101331.44;;;3.47;100.00
10668;BME280;5382;42.136;24.796;2023-01-25T10:43:20;101325.16;;;3.56;100.00
10668;BME280;5382;42.136;24.796;2023-01-25T10:45:47;101308.53;;;3.59;100.00
10668;BME280;5382;42.136;24.796;2023-01-25T10:48:18;101307.88;;;3.47;100.00
10668;BME280;5382;42.136;24.796;2023-01-25T10:50:52;101229.75;;;2.86;100.00
10668;BME280;5382;42.136;24.796;2023-01-25T10:53:25;101272.94;;;3.50;100.00
10668;BME280;5382;42.136;24.796;2023-01-25T10:56:02;101288.31;;;3.65;100.00
10668;BME280;5382;42.136;24.796;2023-01-25T10:58:34;101321.88;;;3.90;100.00
10668;BME280;5382;42.136;24.796;2023-01-25T11:01:03;101325.97;;;3.60;100.00
10668;BME280;5382;42.136;24.796;2023-01-25T11:03:35;101314.88;;;3.47;100.00
10668;BME280;5382;42.136;24.796;2023-01-25T11:06:05;101313.19;;;3.43;100.00
10668;BME280;5382;42.136;24.796;2023-01-25T11:08:34;101286.09;;;3.47;100.00
10668;BME280;5382;42.136;24.796;2023-01-25T11:11:23;101267.16;;;3.34;100.00
10668;BME280;5382;42.136;24.796;2023-01-25T11:13:51;101272.41;;;3.33;100.00
10668;BME280;5382;42.136;24.796;2023-01-25T11:16:30;101288.69;;;3.48;100.00
10668;BME280;5382;42.136;24.796;2023-01-25T11:18:59;101180.22;;;2.78;100.00
10668;BME280;5382;42.136;24.796;2023-01-25T11:21:29;101265.38;;;3.36;100.00
10668;BME280;5382;42.136;24.796;2023-01-25T11:23:59;101277.34;;;3.48;100.00
10668;BME280;5382;42.136;24.796;2023-01-25T11:26:27;101234.97;;;3.31;100.00
10668;BME280;5382;42.136;24.796;2023-01-25T11:29:07;101265.41;;;3.35;100.00
10668;BME280;5382;42.136;24.796;2023-01-25T11:31:36;101216.16;;;3.12;100.00
10668;BME280;5382;42.136;24.796;2023-01-25T11:34:09;101249.75;;;3.33;100.00
10668;BME280;5382;42.136;24.796;2023-01-25T11:36:46;101241.75;;;3.41;100.00
10668;BME280;5382;42.136;24.796;2023-01-25T11:39:28;101239.00;;;3.47;100.00
10668;BME280;5382;42.136;24.796;2023-01-25T11:42:07;101283.00;;;3.70;100.00
10668;BME280;5382;42.136;24.796;2023-01-25T11:45:08;101258.63;;;3.66;100.00
10668;BME280;5382;42.136;24.796;2023-01-25T11:47:53;101253.41;;;3.66;100.00
10668;BME280;5382;42.136;24.796;2023-01-25T11:50:29;101211.75;;;3.57;100.00
10668;BME280;5382;42.136;24.796;2023-01-25T11:53:25;101246.88;;;3.86;100.00
10668;BME280;5382;42.136;24.796;2023-01-25T11:55:59;101238.06;;;3.90;100.00
10668;BME280;5382;42.136;24.796;2023-01-25T11:58:40;101232.25;;;3.77;100.00
10668;BME280;5382;42.136;24.796;2023-01-25T12:01:17;101238.75;;;3.98;100.00
10668;BME280;5382;42.136;24.796;2023-01-25T12:04:15;101237.81;;;4.01;100.00
10668;BME280;5382;42.136;24.796;2023-01-25T12:06:55;101241.56;;;3.89;100.00
10668;BME280;5382;42.136;24.796;2023-01-25T12:09:41;101173.19;;;3.64;100.00
10668;BME280;5382;42.136;24.796;2023-01-25T12:12:21;101216.22;;;3.89;100.00
10668;BME280;5382;42.136;24.796;2023-01-25T12:15:19;101179.88;;;3.77;100.00
10668;BME280;5382;42.136;24.796;2023-01-25T12:18:21;101131.72;;;3.47;100.00
10668;BME280;5382;42.136;24.796;2023-01-25T12:21:05;101169.59;;;3.69;100.00
10668;BME280;5382;42.136;24.796;2023-01-25T12:23:39;101102.94;;;3.47;100.00
10668;BME280;5382;42.136;24.796;2023-01-25T12:26:20;101174.41;;;3.88;100.00
10668;BME280;5382;42.136;24.796;2023-01-25T12:28:58;101114.41;;;3.41;100.00
10668;BME280;5382;42.136;24.796;2023-01-25T12:31:35;101188.41;;;3.85;100.00
10668;BME280;5382;42.136;24.796;2023-01-25T12:34:08;101194.66;;;3.80;100.00
10668;BME280;5382;42.136;24.796;2023-01-25T12:36:38;101201.69;;;3.78;100.00
10668;BME280;5382;42.136;24.796;2023-01-25T12:39:11;101176.78;;;3.60;100.00
10668;BME280;5382;42.136;24.796;2023-01-25T12:41:44;101196.09;;;3.93;100.00
10668;BME280;5382;42.136;24.796;2023-01-25T12:44:17;101147.56;;;3.78;100.00
10668;BME280;5382;42.136;24.796;2023-01-25T12:46:51;101171.53;;;3.97;100.00
10668;BME280;5382;42.136;24.796;2023-01-25T12:49:26;101188.00;;;4.02;100.00
10668;BME280;5382;42.136;24.796;2023-01-25T12:51:58;101201.09;;;4.02;100.00
10668;BME280;5382;42.136;24.796;2023-01-25T12:54:31;101199.66;;;3.89;100.00
10668;BME280;5382;42.136;24.796;2023-01-25T12:57:10;101198.81;;;3.88;100.00
10668;BME280;5382;42.136;24.796;2023-01-25T12:59:47;101204.16;;;3.84;100.00
10668;BME280;5382;42.136;24.796;2023-01-25T13:02:27;101152.41;;;3.58;100.00
10668;BME280;5382;42.136;24.796;2023-01-25T13:05:02;101146.22;;;3.62;100.00
10668;BME280;5382;42.136;24.796;2023-01-25T13:07:42;101187.41;;;3.91;100.00